createdAt,value
2022-11-12T00:00:12.280Z,65.82
2022-11-12T00:02:57.857Z,65.88
2022-11-12T00:05:45.166Z,66.13
2022-11-12T00:08:30.474Z,66.04
2022-11-12T00:11:16.631Z,66.04
2022-11-12T00:14:02.310Z,66.14
2022-11-12T00:16:47.924Z,66.06
2022-11-12T00:19:32.613Z,66.11
2022-11-12T00:22:17.717Z,66.16
2022-11-12T00:25:03.776Z,66.33
2022-11-12T00:27:49.005Z,66.51
2022-11-12T00:30:34.664Z,66.64
2022-11-12T00:33:19.489Z,66.75
2022-11-12T00:36:04.971Z,66.89
2022-11-12T00:38:50.024Z,67.26
2022-11-12T00:41:34.989Z,67.16
2022-11-12T00:44:20.199Z,67.35
2022-11-12T00:47:05.800Z,67.26
2022-11-12T00:49:50.758Z,67.40
2022-11-12T00:52:36.574Z,67.54
2022-11-12T00:55:21.991Z,67.80
2022-11-12T00:58:07.034Z,67.80
2022-11-12T01:00:51.890Z,67.72
2022-11-12T01:03:37.806Z,67.81
2022-11-12T01:06:23.642Z,67.89
2022-11-12T01:09:09.272Z,67.89
2022-11-12T01:11:54.553Z,67.93
2022-11-12T01:14:39.632Z,67.97
2022-11-12T01:17:24.980Z,67.75
2022-11-12T01:20:10.484Z,67.79
2022-11-12T01:22:55.699Z,67.86
2022-11-12T01:25:40.518Z,67.71
2022-11-12T01:28:25.732Z,67.78
2022-11-12T01:31:23.575Z,67.01
2022-11-12T01:34:09.284Z,67.04
2022-11-12T01:36:54.597Z,67.60
2022-11-12T01:39:39.478Z,67.34
2022-11-12T01:42:29.902Z,66.79
2022-11-12T01:45:15.613Z,67.27
2022-11-12T01:48:01.065Z,67.30
2022-11-12T01:50:46.259Z,67.50
2022-11-12T01:53:35.508Z,67.28
2022-11-12T01:56:23.353Z,67.59
2022-11-12T01:59:29.022Z,67.21
2022-11-12T02:02:13.962Z,67.74
2022-11-12T02:04:59.789Z,67.75
2022-11-12T02:07:46.132Z,67.74
2022-11-12T02:10:30.974Z,67.79
2022-11-12T02:13:16.951Z,67.70
2022-11-12T02:16:04.615Z,67.57
2022-11-12T02:18:49.644Z,67.50
2022-11-12T02:21:37.794Z,67.58
2022-11-12T02:24:22.687Z,67.30
2022-11-12T02:27:07.700Z,67.32
2022-11-12T02:29:53.145Z,67.25
2022-11-12T02:32:37.967Z,67.00
2022-11-12T02:35:22.901Z,66.84
2022-11-12T02:38:08.808Z,66.80
2022-11-12T02:40:54.260Z,66.65
2022-11-12T02:43:40.155Z,66.51
2022-11-12T02:46:25.007Z,66.42
2022-11-12T02:49:10.569Z,66.10
2022-11-12T02:51:55.869Z,65.99
2022-11-12T02:54:41.117Z,65.95
2022-11-12T02:57:26.494Z,65.76
2022-11-12T03:00:13.487Z,65.56
2022-11-12T03:02:58.647Z,65.74
2022-11-12T03:05:44.806Z,65.74
2022-11-12T03:08:30.161Z,65.97
2022-11-12T03:11:16.959Z,65.90
2022-11-12T03:14:02.408Z,65.92
2022-11-12T03:16:47.788Z,66.01
2022-11-12T03:19:33.347Z,65.93
2022-11-12T03:22:18.278Z,65.78
2022-11-12T03:25:04.164Z,65.95
2022-11-12T03:27:49.473Z,65.82
2022-11-12T03:30:37.767Z,65.72
2022-11-12T03:33:22.585Z,65.87
2022-11-12T03:36:07.898Z,65.73
2022-11-12T03:38:53.380Z,65.72
2022-11-12T03:41:38.537Z,65.76
2022-11-12T03:44:23.413Z,65.71
2022-11-12T03:47:08.371Z,65.78
2022-11-12T03:49:53.246Z,65.82
2022-11-12T03:52:39.025Z,65.81
2022-11-12T03:55:26.762Z,65.77
2022-11-12T03:58:11.615Z,65.82
2022-11-12T04:00:56.386Z,65.95
2022-11-12T04:03:41.648Z,66.07
2022-11-12T04:06:26.618Z,66.27
2022-11-12T04:09:12.114Z,66.09
2022-11-12T04:11:57.721Z,66.09
2022-11-12T04:14:45.524Z,66.15
2022-11-12T04:17:30.517Z,66.02
2022-11-12T04:20:15.911Z,66.03
2022-11-12T04:23:01.168Z,66.30
2022-11-12T04:25:46.377Z,66.31
2022-11-12T04:28:31.442Z,66.30
2022-11-12T04:31:16.545Z,66.46
2022-11-12T04:34:01.669Z,66.57
2022-11-12T04:36:47.312Z,66.53
2022-11-12T04:39:32.630Z,66.36
2022-11-12T04:42:20.119Z,66.38
2022-11-12T04:45:10.292Z,66.16
2022-11-12T04:47:55.855Z,66.54
2022-11-12T04:50:42.501Z,66.58
2022-11-12T04:53:28.498Z,66.33
2022-11-12T04:56:13.589Z,66.38
2022-11-12T04:58:58.549Z,66.40
2022-11-12T05:01:44.169Z,66.58
2022-11-12T05:04:29.693Z,66.39
2022-11-12T05:07:15.148Z,66.43
2022-11-12T05:10:00.485Z,66.43
2022-11-12T05:12:45.315Z,66.63
2022-11-12T05:15:30.787Z,66.54
2022-11-12T05:18:15.641Z,66.63
2022-11-12T05:21:00.546Z,66.69
2022-11-12T05:23:45.408Z,66.50
2022-11-12T05:26:30.489Z,66.65
2022-11-12T05:29:15.746Z,66.62
2022-11-12T05:32:01.972Z,66.41
2022-11-12T05:34:47.418Z,66.41
2022-11-12T05:37:32.278Z,66.64
2022-11-12T05:40:17.345Z,66.41
2022-11-12T05:43:02.366Z,66.61
2022-11-12T05:45:47.601Z,66.88
2022-11-12T05:48:32.913Z,67.02
2022-11-12T05:51:17.981Z,66.89
2022-11-12T05:54:03.532Z,66.99
2022-11-12T05:56:48.424Z,67.13
2022-11-12T05:59:33.312Z,67.33
2022-11-12T06:02:18.396Z,67.25
2022-11-12T06:05:04.214Z,67.50
2022-11-12T06:07:49.469Z,67.69
2022-11-12T06:10:35.415Z,67.51
2022-11-12T06:13:22.910Z,67.67
2022-11-12T06:16:08.541Z,67.78
2022-11-12T06:18:53.537Z,67.80
2022-11-12T06:21:38.563Z,67.97
2022-11-12T06:24:24.161Z,67.92
2022-11-12T06:27:09.027Z,67.63
2022-11-12T06:29:54.275Z,67.66
2022-11-12T06:32:39.940Z,67.49
2022-11-12T06:35:24.820Z,67.49
2022-11-12T06:38:09.819Z,67.74
2022-11-12T06:40:54.686Z,67.62
2022-11-12T06:43:40.111Z,67.66
2022-11-12T06:46:24.981Z,67.50
2022-11-12T06:49:09.869Z,67.41
2022-11-12T06:51:55.113Z,67.64
2022-11-12T06:54:40.444Z,67.67
2022-11-12T06:57:25.559Z,67.73
2022-11-12T07:00:11.343Z,67.68
2022-11-12T07:02:56.639Z,67.53
2022-11-12T07:05:41.550Z,67.78
2022-11-12T07:08:26.940Z,67.56
2022-11-12T07:11:12.882Z,67.75
2022-11-12T07:13:58.409Z,67.82
2022-11-12T07:16:43.530Z,67.60
2022-11-12T07:19:28.491Z,67.45
2022-11-12T07:22:13.390Z,67.48
2022-11-12T07:24:58.840Z,67.51
2022-11-12T07:27:44.097Z,67.67
2022-11-12T07:30:29.319Z,67.58
2022-11-12T07:33:14.770Z,67.54
2022-11-12T07:36:02.070Z,67.49
2022-11-12T07:38:51.545Z,67.25
2022-11-12T07:41:36.491Z,67.48
2022-11-12T07:44:21.333Z,67.38
2022-11-12T07:47:06.161Z,67.29
2022-11-12T07:49:50.941Z,67.00
2022-11-12T07:52:35.825Z,66.36
2022-11-12T07:55:20.672Z,65.74
2022-11-12T07:58:05.436Z,66.19
2022-11-12T08:00:51.651Z,66.05
2022-11-12T08:03:36.946Z,66.23
2022-11-12T08:06:22.042Z,66.42
2022-11-12T08:09:08.384Z,66.48
2022-11-12T08:11:54.536Z,66.85
2022-11-12T08:14:40.189Z,67.08
2022-11-12T08:17:25.261Z,67.23
2022-11-12T08:20:10.612Z,67.41
2022-11-12T08:22:59.739Z,66.68
2022-11-12T08:25:44.493Z,67.55
2022-11-12T08:28:31.780Z,67.63
2022-11-12T08:31:20.190Z,67.33
2022-11-12T08:34:05.373Z,67.85
2022-11-12T08:36:50.234Z,68.13
2022-11-12T08:39:35.396Z,67.88
2022-11-12T08:42:20.768Z,67.87
2022-11-12T08:45:06.289Z,67.85
2022-11-12T08:47:51.417Z,67.89
2022-11-12T08:50:37.017Z,67.96
2022-11-12T08:53:24.098Z,68.00
2022-11-12T08:56:09.284Z,68.20
2022-11-12T08:58:54.230Z,68.21
2022-11-12T09:01:39.815Z,68.18
2022-11-12T09:04:25.354Z,68.27
2022-11-12T09:07:28.568Z,68.29
2022-11-12T09:10:15.216Z,68.35
2022-11-12T09:13:00.457Z,68.39
2022-11-12T09:15:46.346Z,68.27
2022-11-12T09:18:32.914Z,67.96
2022-11-12T09:21:18.201Z,67.96
2022-11-12T09:24:03.261Z,67.66
2022-11-12T09:26:48.238Z,67.80
2022-11-12T09:29:33.307Z,67.91
2022-11-12T09:32:18.572Z,67.67
2022-11-12T09:35:03.753Z,67.64
2022-11-12T09:37:48.986Z,67.73
2022-11-12T09:40:46.009Z,66.70
2022-11-12T09:43:34.745Z,66.97
2022-11-12T09:46:31.773Z,66.65
2022-11-12T09:49:23.199Z,66.59
2022-11-12T09:52:28.850Z,65.73
2022-11-12T09:55:31.102Z,66.06
2022-11-12T09:58:19.357Z,66.75
2022-11-12T10:01:29.933Z,65.57
2022-11-12T10:04:42.633Z,65.89
2022-11-12T10:07:34.026Z,66.35
2022-11-12T10:10:32.951Z,67.04
2022-11-12T10:13:39.866Z,67.69
2022-11-12T10:16:55.741Z,67.01
2022-11-12T10:19:53.790Z,68.07
2022-11-12T10:23:06.198Z,67.31
2022-11-12T10:25:55.914Z,67.65
2022-11-12T10:28:48.556Z,67.18
2022-11-12T10:31:33.615Z,67.34
2022-11-12T10:34:23.039Z,66.59
2022-11-12T10:37:35.677Z,66.65
2022-11-12T10:40:20.541Z,67.08
2022-11-12T10:43:20.151Z,67.24
2022-11-12T10:46:29.754Z,66.67
2022-11-12T10:49:14.465Z,67.59
2022-11-12T10:51:59.636Z,67.51
2022-11-12T10:54:44.998Z,67.46
2022-11-12T10:57:30.193Z,67.60
2022-11-12T11:00:15.098Z,67.48
2022-11-12T11:03:03.501Z,67.10
2022-11-12T11:05:53.383Z,66.00
2022-11-12T11:08:42.948Z,65.81
2022-11-12T11:11:31.811Z,66.06
2022-11-12T11:14:22.981Z,66.15
2022-11-12T11:17:16.726Z,66.02
2022-11-12T11:20:04.857Z,66.77
2022-11-12T11:22:56.965Z,66.51
2022-11-12T11:25:43.012Z,67.42
2022-11-12T11:28:39.996Z,66.93
2022-11-12T11:31:54.472Z,65.36
2022-11-12T11:34:48.756Z,67.72
2022-11-12T11:37:47.744Z,66.97
2022-11-12T11:40:56.776Z,67.18
2022-11-12T11:43:59.085Z,66.72
2022-11-12T11:47:16.835Z,67.04
2022-11-12T11:50:08.395Z,67.02
2022-11-12T11:53:23.638Z,66.42
2022-11-12T11:56:28.630Z,67.13
2022-11-12T11:59:38.315Z,66.60
2022-11-12T12:02:38.390Z,66.86
2022-11-12T12:05:41.193Z,66.85
2022-11-12T12:09:04.763Z,66.93
2022-11-12T12:12:00.919Z,67.27
2022-11-12T12:15:09.621Z,66.87
2022-11-12T12:18:19.143Z,66.48
2022-11-12T12:21:19.798Z,67.04
2022-11-12T12:24:18.690Z,67.17
2022-11-12T12:27:11.699Z,66.47
2022-11-12T12:30:02.094Z,66.92
2022-11-12T12:33:02.122Z,66.33
2022-11-12T12:35:55.804Z,66.28
2022-11-12T12:39:00.243Z,66.40
2022-11-12T12:42:03.973Z,64.13
2022-11-12T12:45:11.270Z,63.76
2022-11-12T12:47:57.263Z,64.36
2022-11-12T12:50:43.209Z,64.64
2022-11-12T12:53:28.218Z,64.91
2022-11-12T12:56:13.134Z,64.53
2022-11-12T12:58:58.782Z,65.16
2022-11-12T13:01:43.944Z,65.62
2022-11-12T13:04:58.093Z,65.32
2022-11-12T13:07:47.475Z,65.86
2022-11-12T13:10:41.512Z,64.87
2022-11-12T13:13:33.110Z,65.80
2022-11-12T13:16:51.720Z,65.73
2022-11-12T13:20:07.347Z,66.48
2022-11-12T13:22:52.784Z,66.75
2022-11-12T13:25:38.676Z,66.38
2022-11-12T13:28:24.023Z,66.06
2022-11-12T13:31:27.742Z,65.26
2022-11-12T13:34:19.361Z,65.91
2022-11-12T13:37:05.729Z,65.94
2022-11-12T13:39:51.675Z,65.94
2022-11-12T13:42:36.631Z,65.57
2022-11-12T13:45:24.758Z,65.06
2022-11-12T13:48:15.172Z,64.87
2022-11-12T13:51:04.257Z,64.79
2022-11-12T13:53:49.285Z,65.38
2022-11-12T13:56:36.041Z,65.11
2022-11-12T13:59:25.886Z,65.06
2022-11-12T14:02:24.866Z,64.14
2022-11-12T14:05:14.829Z,64.25
2022-11-12T14:08:21.552Z,63.91
2022-11-12T14:11:33.238Z,63.88
2022-11-12T14:14:33.258Z,64.29
2022-11-12T14:17:56.094Z,64.34
2022-11-12T14:20:42.358Z,64.74
2022-11-12T14:23:28.263Z,64.97
2022-11-12T14:26:32.844Z,64.80
2022-11-12T14:29:19.961Z,65.02
2022-11-12T14:32:09.141Z,65.08
2022-11-12T14:34:54.940Z,65.32
2022-11-12T14:37:45.755Z,65.24
2022-11-12T14:40:37.457Z,65.30
2022-11-12T14:43:31.883Z,65.62
2022-11-12T14:46:32.335Z,65.51
2022-11-12T14:49:28.128Z,65.64
2022-11-12T14:52:25.398Z,65.61
2022-11-12T14:55:15.294Z,65.86
2022-11-12T14:58:02.063Z,65.92
2022-11-12T15:00:52.541Z,65.89
2022-11-12T15:03:38.491Z,66.07
2022-11-12T15:06:31.900Z,65.79
2022-11-12T15:09:19.417Z,65.89
2022-11-12T15:12:09.281Z,65.74
2022-11-12T15:15:07.796Z,65.53
2022-11-12T15:18:05.855Z,65.42
2022-11-12T15:21:27.785Z,65.45
2022-11-12T15:24:12.943Z,65.43
2022-11-12T15:27:01.708Z,65.49
2022-11-12T15:29:47.501Z,65.63
2022-11-12T15:32:34.399Z,65.65
2022-11-12T15:35:26.836Z,65.78
2022-11-12T15:38:34.263Z,65.90
2022-11-12T15:41:27.360Z,66.29
2022-11-12T15:44:13.260Z,66.34
2022-11-12T15:47:00.183Z,66.35
2022-11-12T15:49:56.639Z,66.63
2022-11-12T15:52:42.519Z,66.79
2022-11-12T15:55:28.269Z,66.91
2022-11-12T15:58:29.070Z,67.14
2022-11-12T16:01:14.894Z,67.21
2022-11-12T16:04:00.476Z,67.40
2022-11-12T16:06:46.142Z,67.59
2022-11-12T16:09:32.006Z,67.67
2022-11-12T16:12:17.911Z,67.28
2022-11-12T16:15:03.889Z,67.12
2022-11-12T16:17:49.203Z,67.04
2022-11-12T16:20:36.033Z,67.14
2022-11-12T16:23:21.485Z,67.17
2022-11-12T16:26:08.863Z,67.77
2022-11-12T16:28:54.340Z,67.81
2022-11-12T16:31:42.993Z,67.63
2022-11-12T16:34:28.990Z,67.71
2022-11-12T16:37:15.489Z,67.95
2022-11-12T16:40:01.157Z,68.32
2022-11-12T16:42:46.537Z,68.08
2022-11-12T16:45:34.635Z,68.11
2022-11-12T16:48:21.554Z,68.21
2022-11-12T16:51:14.293Z,67.98
2022-11-12T16:54:00.093Z,68.34
2022-11-12T16:56:45.684Z,68.37
2022-11-12T16:59:31.578Z,68.46
2022-11-12T17:02:17.085Z,68.39
2022-11-12T17:05:10.053Z,67.99
2022-11-12T17:07:57.752Z,67.86
2022-11-12T17:10:43.342Z,67.99
2022-11-12T17:13:29.652Z,68.05
2022-11-12T17:16:15.706Z,68.09
2022-11-12T17:19:01.928Z,68.14
2022-11-12T17:21:47.651Z,68.24
2022-11-12T17:24:33.477Z,68.46
2022-11-12T17:27:18.947Z,68.64
2022-11-12T17:30:05.004Z,68.46
2022-11-12T17:32:50.318Z,68.69
2022-11-12T17:35:36.017Z,68.21
2022-11-12T17:38:21.592Z,68.01
2022-11-12T17:41:08.368Z,67.55
2022-11-12T17:43:55.339Z,67.89
2022-11-12T17:46:40.675Z,67.99
2022-11-12T17:49:26.345Z,67.95
2022-11-12T17:52:11.850Z,68.12
2022-11-12T17:54:57.584Z,68.24
2022-11-12T17:57:43.141Z,68.11
2022-11-12T18:00:29.497Z,68.11
2022-11-12T18:03:14.918Z,67.96
2022-11-12T18:06:00.463Z,67.79
2022-11-12T18:08:46.248Z,67.69
2022-11-12T18:11:41.886Z,67.49
2022-11-12T18:14:27.555Z,67.88
2022-11-12T18:17:12.957Z,67.78
2022-11-12T18:19:58.499Z,67.92
2022-11-12T18:22:45.130Z,67.86
2022-11-12T18:25:30.807Z,67.98
2022-11-12T18:28:16.473Z,67.94
2022-11-12T18:31:04.616Z,67.78
2022-11-12T18:33:50.725Z,67.92
2022-11-12T18:36:36.854Z,67.99
2022-11-12T18:39:22.418Z,67.99
2022-11-12T18:42:07.902Z,67.83
2022-11-12T18:44:53.564Z,67.96
2022-11-12T18:47:39.366Z,67.78
2022-11-12T18:50:28.057Z,67.84
2022-11-12T18:53:13.399Z,67.65
2022-11-12T18:56:01.166Z,67.85
2022-11-12T18:58:47.358Z,67.72
2022-11-12T19:04:22.044Z,67.67
2022-11-12T19:07:07.749Z,67.52
2022-11-12T19:09:53.234Z,67.61
2022-11-12T19:12:38.838Z,67.67
2022-11-12T19:15:26.948Z,67.69
2022-11-12T19:18:13.782Z,67.52
2022-11-12T19:21:05.085Z,67.24
2022-11-12T19:23:54.660Z,67.24
2022-11-12T19:26:40.582Z,67.55
2022-11-12T19:29:26.441Z,67.21
2022-11-12T19:32:12.235Z,67.38
2022-11-12T19:34:57.860Z,67.50
2022-11-12T19:37:43.792Z,67.76
2022-11-12T19:40:29.189Z,68.05
2022-11-12T19:43:14.710Z,67.91
2022-11-12T19:46:00.640Z,67.55
2022-11-12T19:48:46.736Z,67.76
2022-11-12T19:51:32.547Z,67.64
2022-11-12T19:54:18.630Z,67.52
2022-11-12T19:57:04.145Z,67.48
2022-11-12T19:59:49.780Z,67.58
2022-11-12T20:02:35.562Z,67.28
2022-11-12T20:05:21.349Z,67.61
2022-11-12T20:08:07.085Z,67.72
2022-11-12T20:10:52.576Z,67.97
2022-11-12T20:13:38.390Z,67.95
2022-11-12T20:16:25.509Z,67.78
2022-11-12T20:19:11.998Z,67.64
2022-11-12T20:21:57.723Z,67.45
2022-11-12T20:24:43.548Z,67.48
2022-11-12T20:27:29.288Z,67.32
2022-11-12T20:30:15.384Z,67.06
2022-11-12T20:33:00.955Z,67.05
2022-11-12T20:35:47.094Z,66.98
2022-11-12T20:38:36.171Z,66.67
2022-11-12T20:41:24.468Z,67.13
2022-11-12T20:44:10.428Z,67.16
2022-11-12T20:46:56.293Z,66.94
2022-11-12T20:49:41.872Z,67.00
2022-11-12T20:52:27.499Z,67.04
2022-11-12T20:55:13.182Z,67.19
2022-11-12T20:58:00.287Z,67.14
2022-11-12T21:00:45.731Z,67.20
2022-11-12T21:03:31.936Z,67.20
2022-11-12T21:06:20.199Z,67.25
2022-11-12T21:09:05.783Z,67.40
2022-11-12T21:11:51.473Z,67.06
2022-11-12T21:14:36.878Z,66.40
2022-11-12T21:17:22.373Z,66.13
2022-11-12T21:20:08.299Z,66.20
2022-11-12T21:22:54.148Z,66.23
2022-11-12T21:25:40.495Z,66.07
2022-11-12T21:28:26.167Z,65.72
2022-11-12T21:31:17.624Z,65.77
2022-11-12T21:34:04.029Z,66.01
2022-11-12T21:36:49.419Z,66.35
2022-11-12T21:39:34.870Z,66.61
2022-11-12T21:42:20.404Z,66.79
2022-11-12T21:45:06.439Z,66.88
2022-11-12T21:47:53.225Z,66.74
2022-11-12T21:50:38.669Z,66.88
2022-11-12T21:53:24.497Z,67.30
2022-11-12T21:56:17.675Z,67.08
2022-11-12T21:59:03.458Z,67.41
2022-11-12T22:01:49.086Z,67.27
2022-11-12T22:04:34.879Z,67.34
2022-11-12T22:07:20.412Z,67.53
2022-11-12T22:10:06.733Z,67.28
2022-11-12T22:13:19.637Z,67.58
2022-11-12T22:15:57.870Z,67.46
2022-11-12T22:18:45.366Z,67.37
2022-11-12T22:21:38.358Z,67.22
2022-11-12T22:24:25.309Z,67.29
2022-11-12T22:27:10.898Z,67.21
2022-11-12T22:29:56.526Z,67.21
2022-11-12T22:32:42.555Z,67.11
2022-11-12T22:35:28.352Z,67.18
2022-11-12T22:38:14.232Z,67.19
2022-11-12T22:41:08.334Z,66.53
2022-11-12T22:43:56.019Z,67.04
2022-11-12T22:46:41.832Z,66.68
2022-11-12T22:49:27.384Z,66.69
2022-11-12T22:52:12.847Z,66.82
2022-11-12T22:54:58.182Z,66.82
2022-11-12T22:57:43.654Z,66.83
2022-11-12T23:00:31.813Z,66.77
2022-11-12T23:03:17.270Z,67.13
2022-11-12T23:06:05.142Z,67.00
2022-11-12T23:08:51.130Z,67.24
2022-11-12T23:11:37.182Z,66.94
2022-11-12T23:14:22.868Z,66.90
2022-11-12T23:17:08.514Z,67.02
2022-11-12T23:19:54.593Z,67.14
2022-11-12T23:22:40.508Z,67.41
2022-11-12T23:25:26.069Z,67.42
2022-11-12T23:28:11.729Z,67.26
2022-11-12T23:30:57.891Z,67.30
2022-11-12T23:33:45.179Z,67.33
2022-11-12T23:36:32.293Z,67.41
2022-11-12T23:39:17.743Z,67.44
2022-11-12T23:42:03.325Z,67.28
2022-11-12T23:44:49.032Z,67.20
2022-11-12T23:47:35.019Z,67.03
2022-11-12T23:50:20.644Z,66.89
2022-11-12T23:53:06.194Z,66.69
2022-11-12T23:55:51.730Z,66.46
2022-11-12T23:58:39.182Z,66.44
